createdAt,value
2018-01-26T00:02:01.401Z,14.63
2018-01-26T00:04:28.910Z,13.55
2018-01-26T00:06:56.633Z,18.23
2018-01-26T00:09:24.142Z,10.25
2018-01-26T00:11:51.664Z,8.35
2018-01-26T00:14:19.205Z,10.40
2018-01-26T00:16:46.713Z,16.23
2018-01-26T00:19:14.253Z,10.88
2018-01-26T00:21:41.761Z,11.98
2018-01-26T00:24:09.280Z,14.23
2018-01-26T00:26:36.822Z,11.65
2018-01-26T00:29:04.358Z,13.00
2018-01-26T00:31:32.814Z,11.57
2018-01-26T00:34:00.328Z,10.65
2018-01-26T00:36:27.836Z,12.18
2018-01-26T00:38:55.361Z,11.90
2018-01-26T00:41:23.383Z,10.35
2018-01-26T00:43:50.920Z,11.12
2018-01-26T00:46:19.424Z,9.55
2018-01-26T00:48:46.937Z,10.27
2018-01-26T00:51:14.472Z,11.40
2018-01-26T00:53:41.972Z,9.40
2018-01-26T00:56:09.762Z,12.98
2018-01-26T00:58:37.265Z,12.48
2018-01-26T01:01:04.778Z,11.27
2018-01-26T01:03:32.339Z,10.77
2018-01-26T01:05:59.895Z,20.70
2018-01-26T01:08:27.736Z,12.77
2018-01-26T01:10:55.243Z,7.50
2018-01-26T01:13:22.752Z,16.02
2018-01-26T01:15:50.286Z,10.48
2018-01-26T01:18:17.801Z,10.23
2018-01-26T01:20:45.472Z,12.93
2018-01-26T01:23:13.450Z,9.02
2018-01-26T01:25:40.984Z,7.53
2018-01-26T01:28:08.529Z,12.32
2018-01-26T01:30:36.033Z,15.40
2018-01-26T01:33:03.764Z,9.65
2018-01-26T01:35:31.273Z,16.48
2018-01-26T01:37:58.787Z,14.38
2018-01-26T01:40:26.337Z,9.45
2018-01-26T01:42:53.848Z,10.75
2018-01-26T01:45:21.532Z,10.27
2018-01-26T01:47:49.043Z,10.25
2018-01-26T01:50:16.575Z,16.15
2018-01-26T01:52:44.135Z,10.73
2018-01-26T01:55:11.686Z,12.93
2018-01-26T01:57:39.401Z,12.30
2018-01-26T02:00:06.909Z,11.25
2018-01-26T02:02:34.419Z,19.08
2018-01-26T02:05:01.962Z,10.30
2018-01-26T02:07:29.465Z,15.52
2018-01-26T02:09:57.048Z,8.48
2018-01-26T02:12:24.544Z,7.82
2018-01-26T02:14:52.056Z,10.20
2018-01-26T02:17:19.624Z,9.50
2018-01-26T02:19:47.183Z,11.73
2018-01-26T02:22:15.049Z,11.55
2018-01-26T02:24:42.552Z,9.98
2018-01-26T02:27:10.061Z,12.40
2018-01-26T02:29:37.624Z,17.40
2018-01-26T02:32:05.132Z,11.23
2018-01-26T02:34:32.743Z,12.27
2018-01-26T02:37:00.255Z,11.27
2018-01-26T02:39:27.759Z,9.20
2018-01-26T02:41:55.323Z,9.05
2018-01-26T02:44:22.899Z,7.78
2018-01-26T02:46:50.641Z,9.10
2018-01-26T02:49:18.146Z,9.10
2018-01-26T02:51:45.657Z,14.27
2018-01-26T02:54:13.216Z,14.77
2018-01-26T02:56:40.730Z,20.30
2018-01-26T02:59:08.339Z,14.30
2018-01-26T03:01:35.847Z,9.80
2018-01-26T03:04:03.353Z,14.13
2018-01-26T03:06:30.893Z,11.98
2018-01-26T03:08:58.470Z,12.13
2018-01-26T03:11:26.253Z,14.10
2018-01-26T03:13:53.876Z,8.52
2018-01-26T03:16:21.578Z,15.90
2018-01-26T03:18:49.105Z,12.15
2018-01-26T03:21:16.610Z,8.10
2018-01-26T03:23:44.512Z,7.62
2018-01-26T03:26:12.008Z,9.73
2018-01-26T03:28:39.512Z,16.50
2018-01-26T03:31:07.038Z,8.15
2018-01-26T03:33:34.548Z,7.62
2018-01-26T03:36:02.305Z,7.47
2018-01-26T03:38:29.810Z,7.57
2018-01-26T03:40:57.354Z,8.02
2018-01-26T03:43:24.911Z,13.60
2018-01-26T03:45:52.416Z,8.02
2018-01-26T03:48:19.977Z,7.95
2018-01-26T03:50:47.487Z,11.48
2018-01-26T03:53:14.984Z,8.35
2018-01-26T03:55:42.526Z,11.93
2018-01-26T03:58:10.042Z,5.20
2018-01-26T04:00:37.592Z,7.22
2018-01-26T04:03:05.104Z,8.15
2018-01-26T04:05:32.619Z,10.75
2018-01-26T04:08:00.504Z,7.35
2018-01-26T04:10:28.005Z,7.03
2018-01-26T04:12:55.540Z,5.75
2018-01-26T04:15:23.079Z,5.57
2018-01-26T04:17:50.580Z,5.05
2018-01-26T04:20:18.110Z,3.95
2018-01-26T04:22:45.642Z,2.87
2018-01-26T04:25:13.520Z,5.47
2018-01-26T04:27:41.019Z,2.28
2018-01-26T04:30:09.002Z,5.85
2018-01-26T04:32:36.516Z,4.32
2018-01-26T04:35:04.068Z,2.92
2018-01-26T04:37:31.601Z,2.83
2018-01-26T04:39:59.113Z,1.85
2018-01-26T04:42:26.619Z,3.65
2018-01-26T04:44:54.165Z,3.70
2018-01-26T04:47:21.664Z,1.60
2018-01-26T04:49:49.393Z,2.50
2018-01-26T04:52:16.897Z,2.42
2018-01-26T04:54:44.435Z,2.72
2018-01-26T04:57:12.042Z,2.25
2018-01-26T04:59:39.553Z,3.05
2018-01-26T05:02:07.123Z,1.50
2018-01-26T05:04:34.624Z,3.47
2018-01-26T05:07:02.125Z,1.83
2018-01-26T05:09:29.649Z,2.65
2018-01-26T05:11:57.159Z,1.95
2018-01-26T05:14:25.113Z,2.58
2018-01-26T05:16:52.621Z,2.17
2018-01-26T05:19:20.136Z,3.35
2018-01-26T05:21:47.668Z,3.15
2018-01-26T05:24:15.173Z,2.45
2018-01-26T05:26:42.832Z,2.58
2018-01-26T05:29:10.365Z,2.92
2018-01-26T05:31:37.871Z,1.90
2018-01-26T05:34:05.397Z,2.40
2018-01-26T05:36:32.905Z,2.22
2018-01-26T05:39:00.500Z,2.20
2018-01-26T05:41:28.015Z,3.35
2018-01-26T05:43:56.540Z,3.42
2018-01-26T05:46:24.100Z,2.25
2018-01-26T05:48:51.608Z,3.50
2018-01-26T05:51:19.168Z,2.55
2018-01-26T05:53:46.677Z,3.50
2018-01-26T05:56:14.176Z,3.03
2018-01-26T05:58:41.705Z,2.30
2018-01-26T06:01:09.237Z,6.82
2018-01-26T06:03:37.030Z,2.65
2018-01-26T06:06:04.572Z,2.30
2018-01-26T06:08:32.077Z,2.53
2018-01-26T06:10:59.613Z,3.08
2018-01-26T06:13:27.148Z,3.10
2018-01-26T06:15:55.013Z,3.62
2018-01-26T06:18:22.572Z,3.92
2018-01-26T06:20:50.072Z,3.60
2018-01-26T06:23:18.102Z,2.12
2018-01-26T06:25:45.606Z,3.42
2018-01-26T06:28:13.292Z,3.60
2018-01-26T06:30:40.797Z,9.50
2018-01-26T06:33:09.239Z,13.50
2018-01-26T06:35:36.771Z,16.67
2018-01-26T06:38:04.297Z,78.00
2018-01-26T06:40:32.039Z,26.05
2018-01-26T06:42:59.544Z,13.82
2018-01-26T06:45:27.053Z,7.70
2018-01-26T06:47:54.614Z,13.95
2018-01-26T06:50:22.174Z,15.60
2018-01-26T06:52:49.742Z,25.92
2018-01-26T06:55:17.281Z,26.60
2018-01-26T06:57:44.784Z,22.75
2018-01-26T07:00:12.797Z,10.40
2018-01-26T07:02:40.310Z,7.75
2018-01-26T07:05:07.813Z,5.62
2018-01-26T07:07:35.372Z,9.55
2018-01-26T07:10:03.274Z,8.80
2018-01-26T07:12:30.786Z,7.82
2018-01-26T07:14:58.597Z,9.32
2018-01-26T07:17:26.144Z,14.75
2018-01-26T07:19:53.653Z,10.75
2018-01-26T07:22:21.466Z,7.25
2018-01-26T07:24:48.968Z,16.73
2018-01-26T07:27:16.482Z,9.27
2018-01-26T07:29:44.042Z,7.97
2018-01-26T07:32:11.556Z,7.90
2018-01-26T07:34:39.065Z,12.50
2018-01-26T07:37:06.618Z,10.65
2018-01-26T07:39:34.178Z,11.93
2018-01-26T07:42:01.780Z,9.65
2018-01-26T07:44:29.499Z,10.88
2018-01-26T07:46:57.010Z,12.07
2018-01-26T07:49:24.619Z,10.63
2018-01-26T07:51:52.361Z,12.50
2018-01-26T07:54:19.869Z,10.90
2018-01-26T07:56:47.398Z,14.43
2018-01-26T07:59:15.225Z,15.10
2018-01-26T08:01:43.654Z,13.65
2018-01-26T08:04:11.305Z,9.88
2018-01-26T08:06:38.849Z,7.12
2018-01-26T08:09:06.358Z,9.75
2018-01-26T08:11:33.860Z,9.45
2018-01-26T08:14:01.746Z,7.97
2018-01-26T08:16:29.301Z,8.85
2018-01-26T08:18:56.804Z,11.27
2018-01-26T08:21:24.337Z,9.98
2018-01-26T08:23:51.846Z,9.10
2018-01-26T08:26:19.745Z,26.12
2018-01-26T08:28:47.256Z,16.90
2018-01-26T08:31:14.776Z,24.95
2018-01-26T08:33:42.525Z,8.90
2018-01-26T08:36:10.095Z,11.48
2018-01-26T08:38:37.644Z,12.68
2018-01-26T08:41:05.612Z,9.40
2018-01-26T08:43:33.991Z,9.57
2018-01-26T08:46:01.500Z,7.03
2018-01-26T08:48:30.441Z,7.53
2018-01-26T08:50:58.040Z,6.12
2018-01-26T08:53:25.555Z,8.07
2018-01-26T08:55:53.088Z,5.85
2018-01-26T08:58:20.598Z,7.90
2018-01-26T09:00:48.133Z,6.05
2018-01-26T09:03:15.693Z,5.35
2018-01-26T09:05:43.197Z,7.25
2018-01-26T09:08:10.713Z,9.35
2018-01-26T09:10:38.267Z,7.23
2018-01-26T09:13:05.827Z,4.12
2018-01-26T09:15:33.387Z,5.57
2018-01-26T09:18:00.924Z,6.70
2018-01-26T09:20:28.812Z,4.00
2018-01-26T09:22:56.372Z,3.92
2018-01-26T09:25:23.916Z,5.18
2018-01-26T09:27:51.429Z,5.95
2018-01-26T09:30:19.970Z,5.18
2018-01-26T09:32:47.505Z,6.60
2018-01-26T09:35:15.012Z,7.15
2018-01-26T09:37:42.552Z,14.32
2018-01-26T09:40:10.088Z,10.13
2018-01-26T09:42:38.585Z,14.10
2018-01-26T09:45:06.093Z,10.15
2018-01-26T09:47:33.630Z,18.52
2018-01-26T09:50:01.168Z,11.82
2018-01-26T09:52:28.720Z,14.18
2018-01-26T09:54:56.278Z,13.00
2018-01-26T09:57:23.776Z,8.55
2018-01-26T09:59:51.294Z,14.60
2018-01-26T10:02:18.853Z,15.65
2018-01-26T10:04:46.360Z,11.82
2018-01-26T10:07:13.869Z,10.75
2018-01-26T10:09:41.428Z,12.73
2018-01-26T10:12:08.944Z,11.98
2018-01-26T10:14:36.456Z,9.90
2018-01-26T10:17:03.981Z,10.70
2018-01-26T10:19:31.501Z,12.00
2018-01-26T10:21:59.009Z,10.20
2018-01-26T10:24:26.609Z,15.88
2018-01-26T10:26:54.156Z,11.52
2018-01-26T10:29:21.697Z,12.00
2018-01-26T10:31:49.258Z,13.80
2018-01-26T10:34:16.816Z,17.12
2018-01-26T10:36:44.320Z,7.95
2018-01-26T10:39:11.853Z,28.40
2018-01-26T10:41:39.389Z,15.15
2018-01-26T10:44:06.897Z,16.60
2018-01-26T10:46:34.441Z,11.18
2018-01-26T10:49:01.965Z,7.97
2018-01-26T10:51:29.472Z,7.18
2018-01-26T10:53:57.011Z,8.63
2018-01-26T10:56:24.520Z,9.13
2018-01-26T10:58:52.028Z,5.37
2018-01-26T11:01:19.598Z,6.35
2018-01-26T11:03:47.107Z,5.45
2018-01-26T11:06:14.617Z,7.93
2018-01-26T11:08:42.542Z,4.93
2018-01-26T11:11:10.065Z,5.18
2018-01-26T11:13:37.573Z,6.93
2018-01-26T11:16:05.140Z,16.45
2018-01-26T11:18:32.667Z,11.35
2018-01-26T11:21:00.185Z,5.40
2018-01-26T11:23:27.872Z,7.45
2018-01-26T11:25:55.377Z,4.45
2018-01-26T11:28:22.910Z,7.43
2018-01-26T11:30:50.470Z,13.90
2018-01-26T11:33:18.030Z,4.35
2018-01-26T11:35:45.545Z,3.35
2018-01-26T11:38:13.077Z,4.03
2018-01-26T11:40:40.595Z,8.40
2018-01-26T11:43:08.105Z,7.87
2018-01-26T11:45:35.650Z,5.55
2018-01-26T11:48:03.196Z,8.33
2018-01-26T11:50:31.476Z,8.47
2018-01-26T11:52:59.015Z,5.50
2018-01-26T11:55:26.575Z,5.83
2018-01-26T11:57:54.133Z,4.30
2018-01-26T12:00:21.691Z,4.10
2018-01-26T12:02:49.193Z,7.80
2018-01-26T12:05:16.712Z,5.13
2018-01-26T12:07:44.266Z,4.13
2018-01-26T12:10:11.765Z,3.20
2018-01-26T12:12:39.271Z,3.40
2018-01-26T12:15:06.820Z,8.33
2018-01-26T12:17:34.338Z,5.90
2018-01-26T12:20:01.860Z,6.28
2018-01-26T12:22:29.404Z,3.40
2018-01-26T12:24:56.920Z,4.62
2018-01-26T12:27:24.433Z,3.35
2018-01-26T12:29:51.991Z,8.07
2018-01-26T12:32:19.551Z,3.50
2018-01-26T12:34:47.061Z,5.12
2018-01-26T12:37:14.604Z,4.00
2018-01-26T12:39:42.125Z,14.93
2018-01-26T12:42:09.637Z,6.97
2018-01-26T12:44:37.200Z,11.93
2018-01-26T12:47:05.724Z,10.80
2018-01-26T12:49:33.284Z,17.67
2018-01-26T12:52:00.820Z,6.80
2018-01-26T12:54:28.345Z,9.13
2018-01-26T12:56:55.856Z,10.75
2018-01-26T12:59:23.519Z,5.78
2018-01-26T13:01:51.033Z,4.85
2018-01-26T13:04:18.541Z,7.20
2018-01-26T13:06:46.095Z,5.00
2018-01-26T13:09:13.756Z,8.82
2018-01-26T13:11:41.267Z,4.25
2018-01-26T13:14:08.805Z,5.10
2018-01-26T13:16:36.400Z,2.70
2018-01-26T13:19:03.926Z,2.65
2018-01-26T13:21:31.485Z,2.10
2018-01-26T13:23:59.017Z,2.78
2018-01-26T13:26:26.569Z,4.75
2018-01-26T13:28:54.127Z,4.00
2018-01-26T13:31:21.643Z,4.15
2018-01-26T13:33:49.177Z,3.40
2018-01-26T13:36:16.906Z,3.47
2018-01-26T13:38:44.415Z,2.70
2018-01-26T13:41:12.128Z,4.00
2018-01-26T13:43:39.901Z,3.17
2018-01-26T13:46:07.432Z,6.87
2018-01-26T13:48:34.965Z,8.43
2018-01-26T13:51:02.569Z,2.90
2018-01-26T13:53:31.154Z,3.10
2018-01-26T13:55:58.712Z,4.05
2018-01-26T13:58:26.250Z,5.70
2018-01-26T14:00:53.756Z,3.60
2018-01-26T14:03:21.306Z,2.28
2018-01-26T14:05:48.815Z,8.80
2018-01-26T14:08:16.496Z,3.17
2018-01-26T14:10:44.020Z,3.42
2018-01-26T14:13:11.603Z,4.75
2018-01-26T14:15:39.320Z,5.97
2018-01-26T14:18:06.836Z,4.15
2018-01-26T14:20:34.405Z,4.20
2018-01-26T14:23:01.977Z,8.77
2018-01-26T14:25:29.534Z,7.43
2018-01-26T14:27:57.075Z,2.42
2018-01-26T14:30:24.592Z,3.08
2018-01-26T14:32:52.125Z,4.53
2018-01-26T14:35:20.052Z,3.78
2018-01-26T14:37:47.634Z,3.72
2018-01-26T14:40:15.290Z,8.98
2018-01-26T14:42:42.808Z,18.25
2018-01-26T14:45:10.443Z,13.93
2018-01-26T14:47:38.008Z,12.15
2018-01-26T14:50:05.534Z,10.07
2018-01-26T14:52:33.289Z,8.43
2018-01-26T14:55:00.850Z,9.15
2018-01-26T14:57:28.620Z,15.15
2018-01-26T14:59:56.173Z,7.60
2018-01-26T15:02:23.684Z,9.98
2018-01-26T15:04:51.292Z,7.28
2018-01-26T15:07:19.778Z,4.03
2018-01-26T15:09:47.355Z,5.40
2018-01-26T15:12:14.896Z,8.50
2018-01-26T15:14:42.417Z,15.18
2018-01-26T15:17:09.972Z,19.05
2018-01-26T15:19:38.093Z,9.07
2018-01-26T15:22:05.789Z,6.32
2018-01-26T15:24:33.401Z,11.10
2018-01-26T15:27:01.039Z,11.45
2018-01-26T15:29:28.825Z,12.10
2018-01-26T15:31:56.382Z,11.05
2018-01-26T15:34:24.028Z,29.30
2018-01-26T15:36:51.572Z,27.40
2018-01-26T15:39:19.132Z,17.73
2018-01-26T15:41:46.726Z,15.00
2018-01-26T15:44:14.241Z,11.10
2018-01-26T15:46:42.153Z,14.25
2018-01-26T15:49:09.708Z,12.70
2018-01-26T15:51:37.282Z,14.20
2018-01-26T15:54:04.827Z,17.67
2018-01-26T15:56:32.345Z,19.00
2018-01-26T15:58:59.896Z,14.63
2018-01-26T16:01:27.428Z,12.55
2018-01-26T16:03:54.941Z,11.80
2018-01-26T16:06:22.478Z,15.65
2018-01-26T16:08:50.086Z,15.55
2018-01-26T16:11:17.843Z,14.75
2018-01-26T16:13:45.627Z,16.35
2018-01-26T16:16:13.166Z,19.98
2018-01-26T16:18:40.727Z,17.50
2018-01-26T16:21:08.296Z,16.92
2018-01-26T16:23:36.477Z,18.40
2018-01-26T16:26:04.119Z,18.23
2018-01-26T16:28:31.680Z,17.75
2018-01-26T16:30:59.257Z,19.70
2018-01-26T16:33:27.717Z,22.67
2018-01-26T16:35:55.298Z,21.12
2018-01-26T16:38:22.860Z,24.75
2018-01-26T16:40:50.386Z,23.52
2018-01-26T16:43:17.954Z,28.95
2018-01-26T16:45:45.514Z,28.80
2018-01-26T16:48:13.071Z,24.20
2018-01-26T16:50:40.682Z,29.25
2018-01-26T16:53:08.300Z,28.85
2018-01-26T16:55:35.888Z,32.97
2018-01-26T16:58:03.407Z,36.38
2018-01-26T17:00:31.309Z,34.05
2018-01-26T17:02:58.838Z,31.67
2018-01-26T17:05:26.397Z,28.40
2018-01-26T17:07:53.954Z,34.10
2018-01-26T17:10:21.471Z,27.00
2018-01-26T17:12:49.037Z,25.25
2018-01-26T17:15:16.637Z,26.10
2018-01-26T17:17:44.176Z,23.55
2018-01-26T17:20:11.741Z,23.48
2018-01-26T17:22:39.424Z,26.33
2018-01-26T17:25:07.506Z,25.73
2018-01-26T17:27:35.350Z,30.27
2018-01-26T17:30:02.911Z,26.52
2018-01-26T17:32:30.505Z,36.50
2018-01-26T17:34:58.014Z,37.60
2018-01-26T17:37:25.838Z,37.55
2018-01-26T17:39:53.659Z,42.28
2018-01-26T17:42:21.535Z,34.03
2018-01-26T17:44:49.299Z,36.25
2018-01-26T17:47:17.141Z,37.15
2018-01-26T17:49:45.119Z,42.28
2018-01-26T17:52:12.817Z,35.90
2018-01-26T17:54:40.367Z,33.55
2018-01-26T17:57:08.004Z,38.90
2018-01-26T17:59:35.919Z,42.97
2018-01-26T18:02:04.048Z,34.42
2018-01-26T18:04:31.910Z,39.33
2018-01-26T18:06:59.678Z,33.97
2018-01-26T18:09:27.387Z,35.30
2018-01-26T18:11:57.281Z,24.85
2018-01-26T18:14:25.948Z,22.35
2018-01-26T18:16:53.910Z,20.05
2018-01-26T18:19:21.879Z,19.23
2018-01-26T18:21:49.539Z,22.30
2018-01-26T18:24:17.206Z,23.08
2018-01-26T18:26:45.275Z,24.58
2018-01-26T18:29:13.758Z,30.02
2018-01-26T18:31:41.681Z,33.85
2018-01-26T18:34:09.693Z,27.25
2018-01-26T18:36:37.559Z,39.30
2018-01-26T18:39:05.742Z,26.95
2018-01-26T18:41:33.798Z,34.22
2018-01-26T18:44:01.671Z,39.67
2018-01-26T18:46:29.532Z,29.50
2018-01-26T18:48:57.555Z,38.95
2018-01-26T18:51:26.083Z,37.78
2018-01-26T18:53:53.845Z,50.70
2018-01-26T18:56:21.719Z,32.03
2018-01-26T18:58:49.793Z,38.22
2018-01-26T19:01:17.763Z,35.05
2018-01-26T19:03:46.540Z,47.28
2018-01-26T19:06:14.280Z,43.90
2018-01-26T19:08:42.070Z,45.63
2018-01-26T19:11:09.954Z,39.88
2018-01-26T19:13:37.700Z,41.05
2018-01-26T19:16:05.674Z,39.95
2018-01-26T19:18:33.533Z,30.23
2018-01-26T19:21:01.281Z,35.05
2018-01-26T19:23:29.871Z,32.17
2018-01-26T19:25:57.747Z,27.77
2018-01-26T19:28:25.756Z,30.50
2018-01-26T19:30:53.481Z,34.67
2018-01-26T19:33:21.454Z,34.78
2018-01-26T19:35:49.417Z,33.33
2018-01-26T19:38:17.283Z,43.50
2018-01-26T19:40:45.982Z,34.33
2018-01-26T19:43:15.073Z,33.65
2018-01-26T19:45:42.932Z,35.67
2018-01-26T19:48:11.926Z,36.33
2018-01-26T19:50:39.892Z,31.62
2018-01-26T19:53:08.169Z,27.58
2018-01-26T19:55:35.944Z,35.92
2018-01-26T19:58:03.594Z,33.97
2018-01-26T20:00:32.280Z,28.33
2018-01-26T20:03:11.820Z,32.72
2018-01-26T20:05:51.003Z,31.55
2018-01-26T20:11:35.322Z,33.00
2018-01-26T20:14:03.195Z,33.63
2018-01-26T20:16:31.057Z,34.05
2018-01-26T20:18:58.895Z,31.25
2018-01-26T20:21:26.811Z,31.20
2018-01-26T20:23:54.563Z,33.38
2018-01-26T20:26:22.419Z,28.08
2018-01-26T20:28:51.281Z,38.85
2018-01-26T20:31:18.858Z,34.70
2018-01-26T20:33:46.883Z,40.00
2018-01-26T20:36:14.722Z,38.00
2018-01-26T20:38:42.573Z,42.20
2018-01-26T20:41:10.436Z,33.55
2018-01-26T20:43:38.205Z,33.13
2018-01-26T20:46:06.169Z,35.58
2018-01-26T20:48:33.929Z,32.67
2018-01-26T20:51:01.696Z,32.10
2018-01-26T20:53:29.464Z,40.47
2018-01-26T20:55:57.226Z,29.05
2018-01-26T20:58:25.093Z,30.30
2018-01-26T21:00:52.958Z,27.00
2018-01-26T21:03:21.401Z,35.63
2018-01-26T21:05:49.201Z,37.58
2018-01-26T21:08:17.024Z,31.15
2018-01-26T21:10:45.477Z,35.60
2018-01-26T21:13:13.216Z,32.38
2018-01-26T21:15:41.078Z,33.08
2018-01-26T21:18:08.845Z,33.60
2018-01-26T21:20:36.708Z,34.85
2018-01-26T21:23:04.675Z,34.88
2018-01-26T21:25:32.437Z,43.13
2018-01-26T21:28:03.369Z,44.97
2018-01-26T21:30:47.749Z,40.72
2018-01-26T21:33:15.412Z,36.05
2018-01-26T21:35:43.003Z,41.28
2018-01-26T21:38:10.531Z,48.30
2018-01-26T21:40:38.094Z,38.35
2018-01-26T21:43:05.940Z,37.28
2018-01-26T21:45:33.805Z,35.20
2018-01-26T21:48:01.790Z,39.47
2018-01-26T21:50:30.357Z,41.58
2018-01-26T21:52:58.126Z,37.78
2018-01-26T21:55:25.885Z,40.00
2018-01-26T21:57:54.039Z,43.53
2018-01-26T22:00:22.246Z,45.60
2018-01-26T22:02:49.891Z,52.97
2018-01-26T22:05:17.553Z,43.67
2018-01-26T22:07:45.149Z,49.25
2018-01-26T22:10:12.761Z,44.95
2018-01-26T22:12:40.539Z,39.17
2018-01-26T22:15:08.200Z,42.28
2018-01-26T22:17:35.743Z,38.63
2018-01-26T22:20:03.333Z,32.42
2018-01-26T22:22:30.911Z,49.45
2018-01-26T22:24:58.571Z,52.97
2018-01-26T22:27:26.201Z,52.55
2018-01-26T22:29:53.795Z,47.67
2018-01-26T22:32:21.409Z,68.87
2018-01-26T22:34:48.980Z,65.60
2018-01-26T22:37:16.548Z,50.08
2018-01-26T22:39:44.105Z,47.65
2018-01-26T22:42:11.625Z,46.40
2018-01-26T22:44:39.216Z,41.15
2018-01-26T22:47:06.725Z,36.08
2018-01-26T22:49:34.335Z,41.58
2018-01-26T22:52:02.745Z,49.47
2018-01-26T22:54:30.281Z,39.53
2018-01-26T22:56:57.832Z,35.22
2018-01-26T22:59:25.341Z,40.40
2018-01-26T23:01:52.894Z,41.80
2018-01-26T23:04:21.534Z,43.15
2018-01-26T23:06:49.950Z,41.00
2018-01-26T23:09:17.497Z,38.30
2018-01-26T23:11:45.013Z,42.88
2018-01-26T23:14:12.896Z,40.65
2018-01-26T23:16:40.456Z,42.90
2018-01-26T23:19:07.966Z,35.17
2018-01-26T23:21:35.672Z,36.05
2018-01-26T23:24:03.175Z,43.60
2018-01-26T23:26:30.898Z,33.90
2018-01-26T23:28:58.405Z,41.58
2018-01-26T23:31:25.911Z,35.65
2018-01-26T23:33:53.472Z,38.83
2018-01-26T23:36:20.981Z,39.55
2018-01-26T23:38:48.679Z,34.50
2018-01-26T23:41:16.192Z,30.62
2018-01-26T23:43:43.711Z,29.80
2018-01-26T23:46:12.191Z,38.55
2018-01-26T23:48:40.363Z,33.80
2018-01-26T23:51:07.922Z,26.17
2018-01-26T23:53:35.481Z,29.55
2018-01-26T23:56:02.992Z,38.63
2018-01-26T23:58:30.528Z,38.65
